createdAt,value
2018-03-02T00:00:08.470Z,-12
2018-03-02T00:01:08.470Z,-11.94
2018-03-02T00:02:08.460Z,-11.99
2018-03-02T00:03:08.483Z,-12
2018-03-02T00:04:08.651Z,-12.04
2018-03-02T00:05:08.491Z,-12.02
2018-03-02T00:06:08.478Z,-12
2018-03-02T00:07:08.499Z,-11.99
2018-03-02T00:08:08.492Z,-12
2018-03-02T00:09:08.526Z,-12.05
2018-03-02T00:10:08.505Z,-12.05
2018-03-02T00:11:08.508Z,-12.05
2018-03-02T00:12:08.495Z,-12.02
2018-03-02T00:13:08.515Z,-12.02
2018-03-02T00:14:08.501Z,-12.09
2018-03-02T00:15:08.518Z,-12.01
2018-03-02T00:16:08.493Z,-12.04
2018-03-02T00:17:08.528Z,-12.06
2018-03-02T00:18:08.500Z,-12.05
2018-03-02T00:19:08.529Z,-12.05
2018-03-02T00:20:08.503Z,-12.01
2018-03-02T00:21:08.735Z,-12.01
2018-03-02T00:22:08.856Z,-12.04
2018-03-02T00:23:08.514Z,-12
2018-03-02T00:24:08.522Z,-12.01
2018-03-02T00:25:08.512Z,-11.98
2018-03-02T00:26:08.508Z,-11.99
2018-03-02T00:27:08.536Z,-12.02
2018-03-02T00:28:08.522Z,-12.04
2018-03-02T00:29:08.527Z,-12.02
2018-03-02T00:30:08.535Z,-11.97
2018-03-02T00:31:08.678Z,-11.92
2018-03-02T00:32:08.699Z,-11.96
2018-03-02T00:33:08.520Z,-12
2018-03-02T00:34:08.553Z,-11.96
2018-03-02T00:35:08.625Z,-11.98
2018-03-02T00:36:08.532Z,-12
2018-03-02T00:37:08.559Z,-12.03
2018-03-02T00:38:08.530Z,-12.03
2018-03-02T00:39:08.545Z,-12.04
2018-03-02T00:40:08.557Z,-12.05
2018-03-02T00:41:08.548Z,-12.02
2018-03-02T00:42:08.551Z,-12.01
2018-03-02T00:43:08.557Z,-12.02
2018-03-02T00:44:08.561Z,-11.99
2018-03-02T00:45:08.558Z,-11.98
2018-03-02T00:46:08.785Z,-12.03
2018-03-02T00:47:08.571Z,-12.02
2018-03-02T00:48:08.791Z,-12
2018-03-02T00:49:09.576Z,-11.97
2018-03-02T00:50:08.568Z,-11.98
2018-03-02T00:51:08.601Z,-11.98
2018-03-02T00:52:08.587Z,-12.01
2018-03-02T00:53:08.596Z,-12
2018-03-02T00:54:08.599Z,-11.97
2018-03-02T00:55:08.597Z,-11.96
2018-03-02T00:56:08.590Z,-11.99
2018-03-02T00:57:08.589Z,-11.99
2018-03-02T00:58:08.597Z,-11.95
2018-03-02T00:59:08.592Z,-11.95
2018-03-02T01:00:08.615Z,-12.02
2018-03-02T01:01:08.592Z,-11.98
2018-03-02T01:02:09.041Z,-11.97
2018-03-02T01:03:08.623Z,-11.97
2018-03-02T01:04:08.627Z,-11.97
2018-03-02T01:05:08.599Z,-11.96
2018-03-02T01:06:08.624Z,-11.93
2018-03-02T01:07:08.621Z,-11.96
2018-03-02T01:08:08.613Z,-11.98
2018-03-02T01:09:08.629Z,-11.98
2018-03-02T01:10:08.628Z,-11.94
2018-03-02T01:11:08.637Z,-11.97
2018-03-02T01:12:08.647Z,-11.96
2018-03-02T01:13:08.638Z,-12.02
2018-03-02T01:14:08.662Z,-12.01
2018-03-02T01:15:08.649Z,-12
2018-03-02T01:16:08.646Z,-12.01
2018-03-02T01:17:08.651Z,-12.01
2018-03-02T01:18:08.686Z,-12.05
2018-03-02T01:19:08.642Z,-12.01
2018-03-02T01:20:08.654Z,-11.99
2018-03-02T01:21:08.655Z,-11.98
2018-03-02T01:22:08.674Z,-12.01
2018-03-02T01:23:08.691Z,-12.05
2018-03-02T01:24:08.662Z,-12.04
2018-03-02T01:25:08.674Z,-12.06
2018-03-02T01:26:08.682Z,-12.02
2018-03-02T01:27:08.723Z,-11.99
2018-03-02T01:28:08.682Z,-12.03
2018-03-02T01:29:08.697Z,-11.98
2018-03-02T01:30:08.687Z,-12.05
2018-03-02T01:31:08.698Z,-12.05
2018-03-02T01:32:08.714Z,-12
2018-03-02T01:33:08.688Z,-12.02
2018-03-02T01:34:08.722Z,-12
2018-03-02T01:35:08.774Z,-11.99
2018-03-02T01:36:08.982Z,-12.03
2018-03-02T01:37:08.709Z,-12
2018-03-02T01:38:08.725Z,-11.96
2018-03-02T01:39:08.719Z,-12.01
2018-03-02T01:40:08.718Z,-12.02
2018-03-02T01:41:08.770Z,-12.04
2018-03-02T01:42:08.718Z,-12
2018-03-02T01:43:08.749Z,-12.03
2018-03-02T01:44:08.741Z,-12.02
2018-03-02T01:45:08.739Z,-12.02
2018-03-02T01:46:08.762Z,-11.99
2018-03-02T01:47:08.756Z,-12.02
2018-03-02T01:48:08.749Z,-12.04
2018-03-02T01:50:20.952Z,-12.06
2018-03-02T01:51:08.784Z,-12.02
2018-03-02T01:52:08.739Z,-11.97
2018-03-02T01:53:08.760Z,-12.07
2018-03-02T01:54:08.769Z,-12.1
2018-03-02T01:55:08.768Z,-12.09
2018-03-02T01:56:08.886Z,-12.12
2018-03-02T01:57:08.767Z,-12.14
2018-03-02T01:58:08.762Z,-12.1
2018-03-02T01:59:08.781Z,-12.12
2018-03-02T02:00:08.779Z,-12.19
2018-03-02T02:01:08.802Z,-12.11
2018-03-02T02:02:08.809Z,-12.14
2018-03-02T02:03:08.799Z,-12.12
2018-03-02T02:04:08.794Z,-12.09
2018-03-02T02:05:08.795Z,-12.19
2018-03-02T02:06:08.799Z,-12.18
2018-03-02T02:07:08.815Z,-12.19
2018-03-02T02:08:08.813Z,-12.18
2018-03-02T02:09:09.097Z,-12.19
2018-03-02T02:10:08.882Z,-12.18
2018-03-02T02:11:08.823Z,-12.17
2018-03-02T02:12:08.821Z,-12.2
2018-03-02T02:13:08.832Z,-12.18
2018-03-02T02:14:08.841Z,-12.24
2018-03-02T02:15:08.839Z,-12.22
2018-03-02T02:16:08.850Z,-12.22
2018-03-02T02:18:15.014Z,-12.18
2018-03-02T02:19:08.860Z,-12.15
2018-03-02T02:20:08.885Z,-12.17
2018-03-02T02:21:08.852Z,-12.22
2018-03-02T02:22:08.858Z,-12.17
2018-03-02T02:23:08.871Z,-12.22
2018-03-02T02:24:08.867Z,-12.22
2018-03-02T02:25:08.895Z,-12.19
2018-03-02T02:26:08.866Z,-12.23
2018-03-02T02:27:08.874Z,-12.27
2018-03-02T02:28:08.881Z,-12.26
2018-03-02T02:29:08.878Z,-12.26
2018-03-02T02:30:08.894Z,-12.27
2018-03-02T02:31:08.892Z,-12.28
2018-03-02T02:32:08.889Z,-12.3
2018-03-02T02:33:08.897Z,-12.27
2018-03-02T02:34:09.166Z,-12.22
2018-03-02T02:35:08.898Z,-12.24
2018-03-02T02:36:08.883Z,-12.29
2018-03-02T02:37:08.902Z,-12.27
2018-03-02T02:38:08.909Z,-12.3
2018-03-02T02:39:08.940Z,-12.35
2018-03-02T02:40:08.884Z,-12.34
2018-03-02T02:41:08.911Z,-12.34
2018-03-02T02:42:08.931Z,-12.34
2018-03-02T02:43:08.918Z,-12.35
2018-03-02T02:44:08.907Z,-12.27
2018-03-02T02:45:08.928Z,-12.3
2018-03-02T02:46:08.946Z,-12.33
2018-03-02T02:47:08.929Z,-12.35
2018-03-02T02:48:08.921Z,-12.34
2018-03-02T02:49:08.968Z,-12.35
2018-03-02T02:50:08.947Z,-12.34
2018-03-02T02:51:08.953Z,-12.33
2018-03-02T02:52:08.955Z,-12.34
2018-03-02T02:53:08.950Z,-12.35
2018-03-02T02:54:08.975Z,-12.34
2018-03-02T02:55:08.965Z,-12.32
2018-03-02T02:56:08.993Z,-12.32
2018-03-02T02:57:08.962Z,-12.35
2018-03-02T02:58:08.975Z,-12.35
2018-03-02T02:59:08.989Z,-12.34
2018-03-02T03:00:08.975Z,-12.35
2018-03-02T03:01:08.994Z,-12.32
2018-03-02T03:03:09.102Z,-12.32
2018-03-02T03:04:09.018Z,-12.34
2018-03-02T03:05:08.996Z,-12.37
2018-03-02T03:06:08.990Z,-12.34
2018-03-02T03:07:08.998Z,-12.34
2018-03-02T03:08:08.985Z,-12.35
2018-03-02T03:09:09.005Z,-12.35
2018-03-02T03:10:09.005Z,-12.38
2018-03-02T03:11:09.013Z,-12.36
2018-03-02T03:12:09.032Z,-12.37
2018-03-02T03:13:09.001Z,-12.33
2018-03-02T03:14:09.007Z,-12.33
2018-03-02T03:15:09.028Z,-12.35
2018-03-02T03:16:09.004Z,-12.31
2018-03-02T03:17:09.293Z,-12.34
2018-03-02T03:18:09.017Z,-12.3
2018-03-02T03:20:30.102Z,-12.35
2018-03-02T03:21:09.026Z,-12.33
2018-03-02T03:22:09.072Z,-12.33
2018-03-02T03:23:09.039Z,-12.35
2018-03-02T03:24:09.046Z,-12.38
2018-03-02T03:25:09.037Z,-12.35
2018-03-02T03:26:09.044Z,-12.34
2018-03-02T03:27:09.080Z,-12.34
2018-03-02T03:28:09.046Z,-12.33
2018-03-02T03:29:09.080Z,-12.33
2018-03-02T03:30:09.078Z,-12.33
2018-03-02T03:31:09.082Z,-12.33
2018-03-02T03:32:09.075Z,-12.33
2018-03-02T03:33:09.341Z,-12.34
2018-03-02T03:34:09.076Z,-12.35
2018-03-02T03:35:09.115Z,-12.35
2018-03-02T03:36:09.083Z,-12.32
2018-03-02T03:37:09.080Z,-12.28
2018-03-02T03:38:09.447Z,-12.31
2018-03-02T03:39:09.085Z,-12.29
2018-03-02T03:40:09.082Z,-12.31
2018-03-02T03:41:09.066Z,-12.32
2018-03-02T03:42:09.318Z,-12.32
2018-03-02T03:43:09.095Z,-12.31
2018-03-02T03:44:09.135Z,-12.36
2018-03-02T03:45:09.368Z,-12.34
2018-03-02T03:46:09.090Z,-12.33
2018-03-02T03:47:09.087Z,-12.36
2018-03-02T03:48:09.130Z,-12.34
2018-03-02T03:49:09.097Z,-12.32
2018-03-02T03:50:09.161Z,-12.29
2018-03-02T03:51:09.109Z,-12.25
2018-03-02T03:52:09.324Z,-12.31
2018-03-02T03:53:09.103Z,-12.3
2018-03-02T03:54:09.100Z,-12.32
2018-03-02T03:55:09.140Z,-12.29
2018-03-02T03:56:09.128Z,-12.29
2018-03-02T03:57:09.126Z,-12.27
2018-03-02T03:58:09.108Z,-12.32
2018-03-02T03:59:09.834Z,-12.24
2018-03-02T04:00:09.206Z,-12.27
2018-03-02T04:01:09.115Z,-12.29
2018-03-02T04:02:09.128Z,-12.33
2018-03-02T04:03:09.136Z,-12.31
2018-03-02T04:04:09.144Z,-12.3
2018-03-02T04:06:15.435Z,-12.31
2018-03-02T04:07:09.137Z,-12.33
2018-03-02T04:08:09.195Z,-12.3
2018-03-02T04:09:09.150Z,-12.34
2018-03-02T04:10:09.160Z,-12.28
2018-03-02T04:11:09.151Z,-12.3
2018-03-02T04:12:09.175Z,-12.28
2018-03-02T04:13:09.212Z,-12.29
2018-03-02T04:14:09.184Z,-12.29
2018-03-02T04:16:09.254Z,-12.32
2018-03-02T04:17:09.199Z,-12.29
2018-03-02T04:18:09.187Z,-12.29
2018-03-02T04:19:09.185Z,-12.31
2018-03-02T04:20:09.238Z,-12.28
2018-03-02T04:21:09.212Z,-12.26
2018-03-02T04:22:09.574Z,-12.24
2018-03-02T04:23:09.220Z,-12.29
2018-03-02T04:24:09.220Z,-12.3
2018-03-02T04:25:09.236Z,-12.29
2018-03-02T04:26:09.211Z,-12.27
2018-03-02T04:27:09.263Z,-12.29
2018-03-02T04:28:09.236Z,-12.24
2018-03-02T04:29:09.233Z,-12.24
2018-03-02T04:30:09.240Z,-12.24
2018-03-02T04:31:09.248Z,-12.26
2018-03-02T04:32:09.265Z,-12.28
2018-03-02T04:33:09.553Z,-12.25
2018-03-02T04:34:09.257Z,-12.29
2018-03-02T04:35:09.253Z,-12.27
2018-03-02T04:36:09.259Z,-12.35
2018-03-02T04:37:09.265Z,-12.36
2018-03-02T04:38:09.273Z,-12.34
2018-03-02T04:39:09.257Z,-12.29
2018-03-02T04:40:09.264Z,-12.31
2018-03-02T04:41:09.272Z,-12.3
2018-03-02T04:42:09.268Z,-12.28
2018-03-02T04:43:09.310Z,-12.27
2018-03-02T04:45:15.464Z,-12.3
2018-03-02T04:46:09.285Z,-12.31
2018-03-02T04:47:09.294Z,-12.29
2018-03-02T04:48:09.300Z,-12.34
2018-03-02T04:49:09.275Z,-12.32
2018-03-02T04:50:09.297Z,-12.28
2018-03-02T04:51:09.288Z,-12.35
2018-03-02T04:52:09.325Z,-12.35
2018-03-02T04:53:09.277Z,-12.31
2018-03-02T04:54:09.289Z,-12.32
2018-03-02T04:55:09.292Z,-12.34
2018-03-02T04:56:09.315Z,-12.33
2018-03-02T04:57:09.321Z,-12.31
2018-03-02T04:58:09.309Z,-12.3
2018-03-02T04:59:09.313Z,-12.32
2018-03-02T05:00:09.309Z,-12.28
2018-03-02T05:01:09.305Z,-12.3
2018-03-02T05:03:15.707Z,-12.31
2018-03-02T05:04:09.326Z,-12.29
2018-03-02T05:05:09.317Z,-12.34
2018-03-02T05:06:09.324Z,-12.32
2018-03-02T05:07:09.330Z,-12.3
2018-03-02T05:08:09.389Z,-12.33
2018-03-02T05:09:09.328Z,-12.33
2018-03-02T05:10:09.330Z,-12.3
2018-03-02T05:11:09.337Z,-12.3
2018-03-02T05:12:09.513Z,-12.32
2018-03-02T05:13:09.330Z,-12.27
2018-03-02T05:14:09.362Z,-12.28
2018-03-02T05:15:09.371Z,-12.27
2018-03-02T05:16:09.352Z,-12.27
2018-03-02T05:17:09.345Z,-12.31
2018-03-02T05:18:09.366Z,-12.29
2018-03-02T05:19:09.390Z,-12.28
2018-03-02T05:20:09.367Z,-12.33
2018-03-02T05:21:09.473Z,-12.34
2018-03-02T05:22:09.381Z,-12.29
2018-03-02T05:23:09.370Z,-12.34
2018-03-02T05:24:09.390Z,-12.33
2018-03-02T05:25:09.386Z,-12.28
2018-03-02T05:26:09.644Z,-12.31
2018-03-02T05:27:09.368Z,-12.3
2018-03-02T05:28:09.370Z,-12.28
2018-03-02T05:29:09.370Z,-12.3
2018-03-02T05:30:09.415Z,-12.32
2018-03-02T05:31:09.408Z,-12.3
2018-03-02T05:32:09.394Z,-12.28
2018-03-02T05:33:09.384Z,-12.28
2018-03-02T05:34:09.402Z,-12.29
2018-03-02T05:35:09.433Z,-12.33
2018-03-02T05:36:09.423Z,-12.23
2018-03-02T05:37:09.476Z,-12.02
2018-03-02T05:38:09.402Z,-12.27
2018-03-02T05:39:09.444Z,-12.31
2018-03-02T05:40:09.409Z,-12.26
2018-03-02T05:41:09.823Z,-12.27
2018-03-02T05:42:09.448Z,-12.24
2018-03-02T05:43:09.430Z,-12.28
2018-03-02T05:44:09.427Z,-12.28
2018-03-02T05:45:09.444Z,-12.27
2018-03-02T05:46:09.437Z,-12.33
2018-03-02T05:47:09.490Z,-12.27
2018-03-02T05:48:09.469Z,-12.29
2018-03-02T05:49:09.441Z,-12.27
2018-03-02T05:50:09.443Z,-12.3
2018-03-02T05:51:09.454Z,-12.32
2018-03-02T05:52:09.456Z,-12.26
2018-03-02T05:53:09.620Z,-12.25
2018-03-02T05:54:09.460Z,-12.28
2018-03-02T05:55:09.445Z,-12.27
2018-03-02T05:56:09.458Z,-12.26
2018-03-02T05:57:09.467Z,-12.26
2018-03-02T05:59:09.528Z,-12.24
2018-03-02T06:00:09.526Z,-12.26
2018-03-02T06:01:09.480Z,-12.23
2018-03-02T06:02:09.627Z,-12.21
2018-03-02T06:03:09.495Z,-12.24
2018-03-02T06:04:09.486Z,-12.29
2018-03-02T06:05:09.508Z,-12.27
2018-03-02T06:06:09.514Z,-12.21
2018-03-02T06:07:09.549Z,-12.23
2018-03-02T06:08:09.489Z,-12.23
2018-03-02T06:09:09.505Z,-12.25
2018-03-02T06:10:09.769Z,-12.27
2018-03-02T06:11:09.501Z,-12.24
2018-03-02T06:12:09.517Z,-12.19
2018-03-02T06:13:09.516Z,-12.16
2018-03-02T06:14:09.519Z,-12.21
2018-03-02T06:15:09.551Z,-12.21
2018-03-02T06:16:09.542Z,-12.21
2018-03-02T06:17:09.560Z,-12.19
2018-03-02T06:18:09.557Z,-12.23
2018-03-02T06:19:09.566Z,-12.2
2018-03-02T06:20:09.547Z,-12.17
2018-03-02T06:21:09.577Z,-12.19
2018-03-02T06:22:09.561Z,-12.25
2018-03-02T06:23:09.548Z,-12.26
2018-03-02T06:24:09.559Z,-12.21
2018-03-02T06:25:09.561Z,-12.17
2018-03-02T06:26:09.741Z,-12.25
2018-03-02T06:27:09.551Z,-12.22
2018-03-02T06:28:09.560Z,-12.18
2018-03-02T06:29:09.557Z,-12.21
2018-03-02T06:30:09.572Z,-12.18
2018-03-02T06:31:09.601Z,-12.18
2018-03-02T06:32:09.562Z,-12.19
2018-03-02T06:33:09.586Z,-12.17
2018-03-02T06:34:09.576Z,-12.18
2018-03-02T06:35:09.581Z,-12.22
2018-03-02T06:36:09.642Z,-12.21
2018-03-02T06:38:09.696Z,-12.18
2018-03-02T06:39:09.593Z,-12.15
2018-03-02T06:40:09.626Z,-12.2
2018-03-02T06:41:09.637Z,-12.17
2018-03-02T06:42:09.612Z,-12.17
2018-03-02T06:43:09.650Z,-12.14
2018-03-02T06:44:09.632Z,-12.13
2018-03-02T06:45:09.615Z,-11.99
2018-03-02T06:46:09.621Z,-12.13
2018-03-02T06:47:09.623Z,-12.17
2018-03-02T06:48:09.622Z,-12.16
2018-03-02T06:49:09.631Z,-12.1
2018-03-02T06:50:09.626Z,-12.13
2018-03-02T06:51:09.650Z,-12.15
2018-03-02T06:52:09.665Z,-12.15
2018-03-02T06:53:09.867Z,-12.09
2018-03-02T06:54:09.652Z,-12.13
2018-03-02T06:55:09.649Z,-12.1
2018-03-02T06:56:09.649Z,-12.1
2018-03-02T06:57:09.710Z,-12.08
2018-03-02T06:58:09.667Z,-12.1
2018-03-02T06:59:09.663Z,-12.1
2018-03-02T07:00:09.676Z,-12.09
2018-03-02T07:01:09.689Z,-12.08
2018-03-02T07:02:09.683Z,-12.06
2018-03-02T07:03:09.667Z,-12.08
2018-03-02T07:04:09.724Z,-12.1
2018-03-02T07:05:09.668Z,-12.09
2018-03-02T07:06:09.680Z,-12.09
2018-03-02T07:07:09.703Z,-12.03
2018-03-02T07:08:09.724Z,-12.03
2018-03-02T07:09:09.721Z,-11.99
2018-03-02T07:10:09.698Z,-12.04
2018-03-02T07:11:09.698Z,-12.04
2018-03-02T07:12:09.716Z,-12.01
2018-03-02T07:13:09.711Z,-12
2018-03-02T07:14:09.726Z,-12.01
2018-03-02T07:15:09.727Z,-12.02
2018-03-02T07:16:09.701Z,-12.01
2018-03-02T07:17:09.757Z,-11.98
2018-03-02T07:18:09.711Z,-12.05
2018-03-02T07:19:09.716Z,-12.06
2018-03-02T07:20:09.839Z,-12.07
2018-03-02T07:21:09.730Z,-12.05
2018-03-02T07:22:09.767Z,-12.07
2018-03-02T07:23:09.741Z,-12.03
2018-03-02T07:24:09.741Z,-11.99
2018-03-02T07:25:09.736Z,-12
2018-03-02T07:26:09.963Z,-11.97
2018-03-02T07:27:09.755Z,-11.95
2018-03-02T07:28:09.742Z,-11.99
2018-03-02T07:29:09.767Z,-12.01
2018-03-02T07:30:09.792Z,-11.97
2018-03-02T07:31:09.742Z,-11.93
2018-03-02T07:32:09.767Z,-11.97
2018-03-02T07:33:09.764Z,-12.03
2018-03-02T07:34:09.935Z,-11.96
2018-03-02T07:35:09.786Z,-11.97
2018-03-02T07:36:09.809Z,-11.94
2018-03-02T07:37:10.166Z,-11.91
2018-03-02T07:38:09.764Z,-11.92
2018-03-02T07:39:09.805Z,-11.94
2018-03-02T07:40:09.840Z,-11.91
2018-03-02T07:41:09.796Z,-11.93
2018-03-02T07:42:09.786Z,-11.9
2018-03-02T07:43:09.793Z,-11.89
2018-03-02T07:44:09.832Z,-11.9
2018-03-02T07:45:09.799Z,-11.9
2018-03-02T07:46:09.812Z,-11.84
2018-03-02T07:47:09.838Z,-11.86
2018-03-02T07:48:09.812Z,-11.93
2018-03-02T07:49:09.945Z,-11.89
2018-03-02T07:50:09.874Z,-11.9
2018-03-02T07:51:09.811Z,-11.88
2018-03-02T07:52:09.820Z,-11.85
2018-03-02T07:53:09.827Z,-11.83
2018-03-02T07:54:09.830Z,-11.8
2018-03-02T07:55:09.868Z,-11.83
2018-03-02T07:56:09.871Z,-11.84
2018-03-02T07:57:09.848Z,-11.84
2018-03-02T07:58:09.829Z,-11.82
2018-03-02T07:59:09.836Z,-11.82
2018-03-02T08:00:09.850Z,-11.79
2018-03-02T08:01:09.900Z,-11.86
2018-03-02T08:02:09.869Z,-11.89
2018-03-02T08:03:09.870Z,-11.9
2018-03-02T08:04:09.870Z,-11.83
2018-03-02T08:05:09.869Z,-11.8
2018-03-02T08:06:09.908Z,-11.74
2018-03-02T08:07:09.877Z,-11.75
2018-03-02T08:08:09.897Z,-11.74
2018-03-02T08:09:09.898Z,-11.77
2018-03-02T08:10:09.957Z,-11.77
2018-03-02T08:11:09.924Z,-11.81
2018-03-02T08:12:09.903Z,-11.83
2018-03-02T08:13:09.903Z,-11.81
2018-03-02T08:14:09.911Z,-11.84
2018-03-02T08:15:09.940Z,-11.84
2018-03-02T08:16:10.158Z,-11.83
2018-03-02T08:17:09.971Z,-11.81
2018-03-02T08:18:09.946Z,-11.82
2018-03-02T08:19:09.950Z,-11.82
2018-03-02T08:20:09.940Z,-11.83
2018-03-02T08:21:09.967Z,-11.86
2018-03-02T08:22:09.955Z,-11.75
2018-03-02T08:23:09.951Z,-11.83
2018-03-02T08:24:09.964Z,-11.81
2018-03-02T08:25:09.956Z,-11.81
2018-03-02T08:26:10.180Z,-11.78
2018-03-02T08:27:10.006Z,-11.73
2018-03-02T08:28:09.956Z,-11.7
2018-03-02T08:29:09.944Z,-11.76
2018-03-02T08:30:09.950Z,-11.75
2018-03-02T08:31:09.993Z,-11.73
2018-03-02T08:32:09.969Z,-11.68
2018-03-02T08:33:09.968Z,-11.6
2018-03-02T08:34:09.967Z,-11.61
2018-03-02T08:35:09.975Z,-11.63
2018-03-02T08:36:10.044Z,-11.69
2018-03-02T08:37:10.004Z,-11.65
2018-03-02T08:38:09.993Z,-11.68
2018-03-02T08:39:09.999Z,-11.63
2018-03-02T08:40:10.051Z,-11.64
2018-03-02T08:41:10.034Z,-11.71
2018-03-02T08:42:10.027Z,-11.69
2018-03-02T08:43:10.100Z,-11.66
2018-03-02T08:44:10.015Z,-11.67
2018-03-02T08:45:10.019Z,-11.65
2018-03-02T08:46:10.281Z,-11.66
2018-03-02T08:47:10.034Z,-11.69
2018-03-02T08:48:10.038Z,-11.67
2018-03-02T08:49:10.027Z,-11.66
2018-03-02T08:50:10.018Z,-11.61
2018-03-02T08:51:10.049Z,-11.62
2018-03-02T08:52:10.035Z,-11.66
2018-03-02T08:53:10.057Z,-11.65
2018-03-02T08:54:10.059Z,-11.66
2018-03-02T08:55:10.057Z,-11.66
2018-03-02T08:56:10.102Z,-11.63
2018-03-02T08:57:10.078Z,-11.61
2018-03-02T08:58:10.088Z,-11.6
2018-03-02T08:59:10.094Z,-11.53
2018-03-02T09:00:10.288Z,-11.53
2018-03-02T09:01:10.366Z,-11.51
2018-03-02T09:02:10.094Z,-11.52
2018-03-02T09:03:10.104Z,-11.59
2018-03-02T09:04:10.101Z,-11.57
2018-03-02T09:05:10.113Z,-11.58
2018-03-02T09:06:10.143Z,-11.58
2018-03-02T09:07:10.095Z,-11.58
2018-03-02T09:08:10.108Z,-11.61
2018-03-02T09:09:10.121Z,-11.62
2018-03-02T09:10:10.117Z,-11.61
2018-03-02T09:11:10.104Z,-11.55
2018-03-02T09:12:10.135Z,-11.54
2018-03-02T09:13:10.116Z,-11.56
2018-03-02T09:14:10.127Z,-11.58
2018-03-02T09:15:10.137Z,-11.62
2018-03-02T09:16:10.171Z,-11.58
2018-03-02T09:17:10.138Z,-11.58
2018-03-02T09:18:10.140Z,-11.53
2018-03-02T09:19:10.168Z,-11.5
2018-03-02T09:20:10.165Z,-11.52
2018-03-02T09:21:10.173Z,-11.55
2018-03-02T09:22:10.181Z,-11.54
2018-03-02T09:23:10.165Z,-11.47
2018-03-02T09:24:10.173Z,-11.4
2018-03-02T09:25:10.164Z,-11.43
2018-03-02T09:26:10.170Z,-11.45
2018-03-02T09:27:10.180Z,-11.47
2018-03-02T09:28:10.169Z,-11.53
2018-03-02T09:29:10.228Z,-11.45
2018-03-02T09:30:10.430Z,-11.51
2018-03-02T09:31:10.177Z,-11.44
2018-03-02T09:32:10.199Z,-11.46
2018-03-02T09:33:10.226Z,-11.42
2018-03-02T09:34:10.179Z,-11.41
2018-03-02T09:35:10.193Z,-11.36
2018-03-02T09:36:10.197Z,-11.39
2018-03-02T09:37:10.220Z,-11.42
2018-03-02T09:38:10.183Z,-11.36
2018-03-02T09:39:10.230Z,-11.35
2018-03-02T09:40:10.192Z,-11.3
2018-03-02T09:41:10.218Z,-11.3
2018-03-02T09:42:10.280Z,-11.3
2018-03-02T09:43:10.221Z,-11.45
2018-03-02T09:44:10.210Z,-11.39
2018-03-02T09:45:10.261Z,-11.36
2018-03-02T09:46:10.210Z,-11.3
2018-03-02T09:47:10.225Z,-11.31
2018-03-02T09:48:10.286Z,-11.35
2018-03-02T09:49:10.222Z,-11.3
2018-03-02T09:50:10.250Z,-11.36
2018-03-02T09:51:10.219Z,-11.34
2018-03-02T09:52:10.309Z,-11.31
2018-03-02T09:53:10.251Z,-11.3
2018-03-02T09:54:10.252Z,-11.32
2018-03-02T09:55:10.232Z,-11.31
2018-03-02T09:56:10.256Z,-11.26
2018-03-02T09:57:10.241Z,-11.25
2018-03-02T09:58:10.452Z,-11.29
2018-03-02T09:59:10.351Z,-11.39
2018-03-02T10:00:10.584Z,-11.37
2018-03-02T10:01:10.254Z,-11.37
2018-03-02T10:02:10.259Z,-11.38
2018-03-02T10:03:10.438Z,-11.39
2018-03-02T10:04:10.272Z,-11.36
2018-03-02T10:05:10.279Z,-11.34
2018-03-02T10:06:10.295Z,-11.32
2018-03-02T10:07:10.287Z,-11.18
2018-03-02T10:08:10.281Z,-11.07
2018-03-02T10:09:10.318Z,-11.03
2018-03-02T10:10:10.276Z,-11.07
2018-03-02T10:11:10.285Z,-11.11
2018-03-02T10:12:10.289Z,-10.99
2018-03-02T10:13:10.312Z,-11.06
2018-03-02T10:14:10.328Z,-11.14
2018-03-02T10:15:10.302Z,-11.13
2018-03-02T10:16:10.309Z,-11.13
2018-03-02T10:17:10.306Z,-11.22
2018-03-02T10:18:10.433Z,-11.12
2018-03-02T10:19:10.329Z,-11.12
2018-03-02T10:20:10.313Z,-11.14
2018-03-02T10:21:10.329Z,-11.15
2018-03-02T10:22:10.336Z,-11.13
2018-03-02T10:23:10.345Z,-11.13
2018-03-02T10:24:10.393Z,-11.21
2018-03-02T10:25:10.342Z,-11.14
2018-03-02T10:26:10.354Z,-11.08
2018-03-02T10:27:10.354Z,-11.12
2018-03-02T10:28:10.414Z,-11.18
2018-03-02T10:29:10.383Z,-11.11
2018-03-02T10:30:10.365Z,-11.15
2018-03-02T10:31:10.365Z,-11.12
2018-03-02T10:32:10.371Z,-11.04
2018-03-02T10:33:14.176Z,-11.04
2018-03-02T10:34:10.380Z,-11
2018-03-02T10:35:10.388Z,-11.04
2018-03-02T10:36:10.382Z,-11.04
2018-03-02T10:37:10.400Z,-10.97
2018-03-02T10:38:10.674Z,-10.98
2018-03-02T10:39:10.427Z,-11.15
2018-03-02T10:40:10.395Z,-11.13
2018-03-02T10:41:10.399Z,-11.03
2018-03-02T10:42:10.445Z,-11.08
2018-03-02T10:43:10.443Z,-11.14
2018-03-02T10:44:10.409Z,-11.14
2018-03-02T10:45:10.423Z,-11.03
2018-03-02T10:46:10.435Z,-11.11
2018-03-02T10:47:10.435Z,-11.11
2018-03-02T10:48:10.463Z,-11.08
2018-03-02T10:49:10.436Z,-11.03
2018-03-02T10:50:10.450Z,-11.15
2018-03-02T10:51:10.441Z,-11.04
2018-03-02T10:52:10.443Z,-11
2018-03-02T10:53:10.544Z,-10.93
2018-03-02T10:54:10.569Z,-11.05
2018-03-02T10:55:10.485Z,-11.06
2018-03-02T10:56:10.591Z,-11.04
2018-03-02T10:57:10.456Z,-11
2018-03-02T10:58:10.481Z,-11.02
2018-03-02T10:59:10.456Z,-11.04
2018-03-02T11:00:10.466Z,-10.99
2018-03-02T11:01:10.472Z,-10.9
2018-03-02T11:02:10.490Z,-10.99
2018-03-02T11:03:10.499Z,-11.03
2018-03-02T11:04:10.482Z,-11.01
2018-03-02T11:05:10.487Z,-11.05
2018-03-02T11:06:10.486Z,-10.99
2018-03-02T11:07:10.509Z,-11.03
2018-03-02T11:08:10.720Z,-11.03
2018-03-02T11:09:10.494Z,-11.03
2018-03-02T11:10:10.496Z,-10.96
2018-03-02T11:11:10.491Z,-10.98
2018-03-02T11:12:10.496Z,-10.94
2018-03-02T11:13:10.591Z,-10.9
2018-03-02T11:14:10.516Z,-10.86
2018-03-02T11:15:10.558Z,-10.88
2018-03-02T11:16:10.522Z,-10.94
2018-03-02T11:17:10.528Z,-10.83
2018-03-02T11:18:10.531Z,-10.86
2018-03-02T11:19:10.518Z,-10.86
2018-03-02T11:20:10.526Z,-10.89
2018-03-02T11:21:10.531Z,-10.86
2018-03-02T11:22:10.595Z,-10.88
2018-03-02T11:23:10.676Z,-10.85
2018-03-02T11:24:10.550Z,-10.83
2018-03-02T11:25:10.556Z,-10.84
2018-03-02T11:26:10.544Z,-10.8
2018-03-02T11:27:10.546Z,-10.73
2018-03-02T11:28:10.570Z,-10.82
2018-03-02T11:29:10.543Z,-10.8
2018-03-02T11:30:10.544Z,-10.79
2018-03-02T11:31:10.564Z,-10.71
2018-03-02T11:32:10.572Z,-10.8
2018-03-02T11:33:10.782Z,-10.76
2018-03-02T11:34:10.557Z,-10.83
2018-03-02T11:35:10.562Z,-10.79
2018-03-02T11:36:10.563Z,-10.82
2018-03-02T11:37:10.584Z,-10.76
2018-03-02T11:38:10.573Z,-10.72
2018-03-02T11:39:10.575Z,-10.73
2018-03-02T11:40:10.583Z,-10.63
2018-03-02T11:41:10.577Z,-10.68
2018-03-02T11:42:10.587Z,-10.64
2018-03-02T11:43:10.609Z,-10.7
2018-03-02T11:44:10.654Z,-10.8
2018-03-02T11:45:10.595Z,-10.68
2018-03-02T11:46:10.588Z,-10.66
2018-03-02T11:47:10.598Z,-10.62
2018-03-02T11:48:10.637Z,-10.6
2018-03-02T11:49:10.613Z,-10.73
2018-03-02T11:50:10.635Z,-10.72
2018-03-02T11:51:10.602Z,-10.7
2018-03-02T11:52:10.606Z,-10.85
2018-03-02T11:53:10.630Z,-10.71
2018-03-02T11:54:10.655Z,-10.6
2018-03-02T11:55:10.650Z,-10.64
2018-03-02T11:56:10.635Z,-10.66
2018-03-02T11:57:10.627Z,-10.69
2018-03-02T11:58:10.624Z,-10.57
2018-03-02T11:59:10.652Z,-10.58
2018-03-02T12:00:10.654Z,-10.55
2018-03-02T12:01:10.639Z,-10.61
2018-03-02T12:02:10.706Z,-10.61
2018-03-02T12:03:10.644Z,-10.61
2018-03-02T12:04:10.639Z,-10.61
2018-03-02T12:05:10.683Z,-10.63
2018-03-02T12:06:10.655Z,-10.59
2018-03-02T12:07:10.657Z,-10.69
2018-03-02T12:08:10.648Z,-10.6
2018-03-02T12:09:10.656Z,-10.58
2018-03-02T12:10:10.684Z,-10.6
2018-03-02T12:11:10.664Z,-10.62
2018-03-02T12:12:10.652Z,-10.7
2018-03-02T12:13:10.661Z,-10.47
2018-03-02T12:14:10.666Z,-10.52
2018-03-02T12:15:10.710Z,-10.62
2018-03-02T12:16:10.689Z,-10.58
2018-03-02T12:17:10.695Z,-10.48
2018-03-02T12:18:10.685Z,-10.48
2018-03-02T12:19:10.693Z,-10.44
2018-03-02T12:20:10.684Z,-10.49
2018-03-02T12:21:10.710Z,-10.59
2018-03-02T12:22:10.720Z,-10.57
2018-03-02T12:23:10.691Z,-10.44
2018-03-02T12:24:10.696Z,-10.43
2018-03-02T12:25:10.867Z,-10.36
2018-03-02T12:26:10.691Z,-10.44
2018-03-02T12:27:10.718Z,-10.42
2018-03-02T12:28:10.706Z,-10.43
2018-03-02T12:29:10.711Z,-10.44
2018-03-02T12:30:10.814Z,-10.37
2018-03-02T12:31:11.013Z,-10.33
2018-03-02T12:32:10.736Z,-10.29
2018-03-02T12:33:10.857Z,-10.36
2018-03-02T12:34:10.745Z,-10.34
2018-03-02T12:35:10.757Z,-10.3
2018-03-02T12:36:10.752Z,-10.41
2018-03-02T12:37:10.873Z,-10.35
2018-03-02T12:38:10.763Z,-10.31
2018-03-02T12:39:10.795Z,-10.38
2018-03-02T12:40:10.796Z,-10.36
2018-03-02T12:41:10.793Z,-10.27
2018-03-02T12:42:10.796Z,-10.3